sensor_id;sensor_type;location;lat;lon;timestamp;P1;durP1;ratioP1;P2;durP2;ratioP2
75459;SDS011;64039;53.060;9.342;2023-08-01T00:01:01;3.72;;;2.10;;
75459;SDS011;64039;53.060;9.342;2023-08-01T00:03:28;3.90;;;2.47;;
75459;SDS011;64039;53.060;9.342;2023-08-01T00:05:53;2.80;;;2.08;;
75459;SDS011;64039;53.060;9.342;2023-08-01T00:08:20;3.65;;;2.08;;
75459;SDS011;64039;53.060;9.342;2023-08-01T00:10:46;3.40;;;2.35;;
75459;SDS011;64039;53.060;9.342;2023-08-01T00:13:12;2.60;;;2.30;;
75459;SDS011;64039;53.060;9.342;2023-08-01T00:15:37;2.97;;;2.20;;
75459;SDS011;64039;53.060;9.342;2023-08-01T00:18:03;3.10;;;2.40;;
75459;SDS011;64039;53.060;9.342;2023-08-01T00:20:28;3.83;;;2.75;;
75459;SDS011;64039;53.060;9.342;2023-08-01T00:22:54;7.00;;;2.75;;
75459;SDS011;64039;53.060;9.342;2023-08-01T00:25:20;2.70;;;2.30;;
75459;SDS011;64039;53.060;9.342;2023-08-01T00:27:45;3.25;;;2.40;;
75459;SDS011;64039;53.060;9.342;2023-08-01T00:30:11;3.78;;;2.80;;
75459;SDS011;64039;53.060;9.342;2023-08-01T00:32:37;3.92;;;2.20;;
75459;SDS011;64039;53.060;9.342;2023-08-01T00:35:03;3.95;;;2.35;;
75459;SDS011;64039;53.060;9.342;2023-08-01T00:37:29;2.90;;;2.40;;
75459;SDS011;64039;53.060;9.342;2023-08-01T00:39:54;2.75;;;1.92;;
75459;SDS011;64039;53.060;9.342;2023-08-01T00:42:20;3.38;;;2.65;;
75459;SDS011;64039;53.060;9.342;2023-08-01T00:44:45;4.35;;;2.10;;
75459;SDS011;64039;53.060;9.342;2023-08-01T00:47:13;2.83;;;2.22;;
75459;SDS011;64039;53.060;9.342;2023-08-01T00:49:38;4.15;;;2.20;;
75459;SDS011;64039;53.060;9.342;2023-08-01T00:52:04;2.53;;;2.25;;
75459;SDS011;64039;53.060;9.342;2023-08-01T00:54:31;2.70;;;2.17;;
75459;SDS011;64039;53.060;9.342;2023-08-01T00:57:01;2.72;;;2.28;;
75459;SDS011;64039;53.060;9.342;2023-08-01T00:59:30;3.20;;;2.25;;
75459;SDS011;64039;53.060;9.342;2023-08-01T01:01:56;4.85;;;2.33;;
75459;SDS011;64039;53.060;9.342;2023-08-01T01:04:22;3.40;;;2.25;;
75459;SDS011;64039;53.060;9.342;2023-08-01T01:06:51;3.78;;;2.83;;
75459;SDS011;64039;53.060;9.342;2023-08-01T01:09:22;6.30;;;2.90;;
75459;SDS011;64039;53.060;9.342;2023-08-01T01:11:47;3.17;;;2.80;;
75459;SDS011;64039;53.060;9.342;2023-08-01T01:14:13;6.93;;;2.67;;
75459;SDS011;64039;53.060;9.342;2023-08-01T01:16:39;4.00;;;2.97;;
75459;SDS011;64039;53.060;9.342;2023-08-01T01:19:06;5.03;;;2.92;;
75459;SDS011;64039;53.060;9.342;2023-08-01T01:21:34;6.88;;;2.80;;
75459;SDS011;64039;53.060;9.342;2023-08-01T01:24:02;6.90;;;3.10;;
75459;SDS011;64039;53.060;9.342;2023-08-01T01:26:30;4.97;;;2.80;;
75459;SDS011;64039;53.060;9.342;2023-08-01T01:28:58;3.65;;;2.60;;
75459;SDS011;64039;53.060;9.342;2023-08-01T01:31:24;4.97;;;2.78;;
75459;SDS011;64039;53.060;9.342;2023-08-01T01:33:50;2.88;;;2.58;;
75459;SDS011;64039;53.060;9.342;2023-08-01T01:36:15;4.05;;;2.55;;
75459;SDS011;64039;53.060;9.342;2023-08-01T01:38:41;3.20;;;2.60;;
75459;SDS011;64039;53.060;9.342;2023-08-01T01:41:06;4.55;;;3.03;;
75459;SDS011;64039;53.060;9.342;2023-08-01T01:43:32;5.28;;;3.60;;
75459;SDS011;64039;53.060;9.342;2023-08-01T01:45:57;3.25;;;2.90;;
75459;SDS011;64039;53.060;9.342;2023-08-01T01:48:23;3.95;;;3.08;;
75459;SDS011;64039;53.060;9.342;2023-08-01T01:50:48;4.50;;;2.72;;
75459;SDS011;64039;53.060;9.342;2023-08-01T01:53:14;3.30;;;3.00;;
75459;SDS011;64039;53.060;9.342;2023-08-01T01:55:39;5.30;;;3.08;;
75459;SDS011;64039;53.060;9.342;2023-08-01T01:58:05;3.20;;;2.67;;
75459;SDS011;64039;53.060;9.342;2023-08-01T02:00:31;3.88;;;2.90;;
75459;SDS011;64039;53.060;9.342;2023-08-01T02:02:56;7.80;;;2.80;;
75459;SDS011;64039;53.060;9.342;2023-08-01T02:05:22;3.15;;;2.80;;
75459;SDS011;64039;53.060;9.342;2023-08-01T02:07:47;4.72;;;2.47;;
75459;SDS011;64039;53.060;9.342;2023-08-01T02:10:13;6.63;;;2.58;;
75459;SDS011;64039;53.060;9.342;2023-08-01T02:12:38;4.35;;;2.63;;
75459;SDS011;64039;53.060;9.342;2023-08-01T02:15:04;5.80;;;2.75;;
75459;SDS011;64039;53.060;9.342;2023-08-01T02:17:31;4.22;;;2.80;;
75459;SDS011;64039;53.060;9.342;2023-08-01T02:19:56;3.97;;;2.45;;
75459;SDS011;64039;53.060;9.342;2023-08-01T02:22:22;3.75;;;2.60;;
75459;SDS011;64039;53.060;9.342;2023-08-01T02:24:49;4.70;;;2.30;;
75459;SDS011;64039;53.060;9.342;2023-08-01T02:27:15;2.80;;;2.25;;
75459;SDS011;64039;53.060;9.342;2023-08-01T02:29:40;4.40;;;2.72;;
75459;SDS011;64039;53.060;9.342;2023-08-01T02:32:06;4.20;;;2.67;;
75459;SDS011;64039;53.060;9.342;2023-08-01T02:34:31;3.72;;;2.70;;
75459;SDS011;64039;53.060;9.342;2023-08-01T02:36:57;4.72;;;2.55;;
75459;SDS011;64039;53.060;9.342;2023-08-01T02:39:22;3.90;;;2.47;;
75459;SDS011;64039;53.060;9.342;2023-08-01T02:41:48;5.20;;;2.70;;
75459;SDS011;64039;53.060;9.342;2023-08-01T02:44:13;5.55;;;2.72;;
75459;SDS011;64039;53.060;9.342;2023-08-01T02:46:39;4.57;;;2.65;;
75459;SDS011;64039;53.060;9.342;2023-08-01T02:49:04;3.65;;;2.72;;
75459;SDS011;64039;53.060;9.342;2023-08-01T02:51:30;6.28;;;2.88;;
75459;SDS011;64039;53.060;9.342;2023-08-01T02:53:55;4.18;;;2.75;;
75459;SDS011;64039;53.060;9.342;2023-08-01T02:56:20;4.57;;;2.60;;
75459;SDS011;64039;53.060;9.342;2023-08-01T02:58:46;5.30;;;2.95;;
75459;SDS011;64039;53.060;9.342;2023-08-01T03:01:11;4.88;;;3.05;;
75459;SDS011;64039;53.060;9.342;2023-08-01T03:03:38;4.68;;;3.17;;
75459;SDS011;64039;53.060;9.342;2023-08-01T03:06:04;4.22;;;2.65;;
75459;SDS011;64039;53.060;9.342;2023-08-01T03:08:29;5.10;;;2.60;;
75459;SDS011;64039;53.060;9.342;2023-08-01T03:10:55;4.32;;;3.50;;
75459;SDS011;64039;53.060;9.342;2023-08-01T03:13:21;5.25;;;2.88;;
75459;SDS011;64039;53.060;9.342;2023-08-01T03:15:46;4.55;;;3.00;;
75459;SDS011;64039;53.060;9.342;2023-08-01T03:18:12;8.25;;;3.50;;
75459;SDS011;64039;53.060;9.342;2023-08-01T03:20:37;5.57;;;3.10;;
75459;SDS011;64039;53.060;9.342;2023-08-01T03:23:03;6.53;;;3.67;;
75459;SDS011;64039;53.060;9.342;2023-08-01T03:25:29;5.95;;;3.45;;
75459;SDS011;64039;53.060;9.342;2023-08-01T03:27:54;5.43;;;3.38;;
75459;SDS011;64039;53.060;9.342;2023-08-01T03:30:21;5.55;;;3.50;;
75459;SDS011;64039;53.060;9.342;2023-08-01T03:32:46;5.15;;;3.25;;
75459;SDS011;64039;53.060;9.342;2023-08-01T03:35:12;5.22;;;3.63;;
75459;SDS011;64039;53.060;9.342;2023-08-01T03:37:39;10.07;;;4.10;;
75459;SDS011;64039;53.060;9.342;2023-08-01T03:40:05;3.85;;;3.13;;
75459;SDS011;64039;53.060;9.342;2023-08-01T03:42:35;3.70;;;3.13;;
75459;SDS011;64039;53.060;9.342;2023-08-01T03:45:02;5.07;;;3.40;;
75459;SDS011;64039;53.060;9.342;2023-08-01T03:47:27;9.95;;;3.88;;
75459;SDS011;64039;53.060;9.342;2023-08-01T03:49:53;7.00;;;4.53;;
75459;SDS011;64039;53.060;9.342;2023-08-01T03:52:18;9.07;;;4.05;;
75459;SDS011;64039;53.060;9.342;2023-08-01T03:54:44;5.28;;;3.88;;
75459;SDS011;64039;53.060;9.342;2023-08-01T03:57:09;5.35;;;3.90;;
75459;SDS011;64039;53.060;9.342;2023-08-01T03:59:35;5.93;;;3.97;;
75459;SDS011;64039;53.060;9.342;2023-08-01T04:02:02;6.78;;;4.00;;
75459;SDS011;64039;53.060;9.342;2023-08-01T04:04:28;12.55;;;4.63;;
75459;SDS011;64039;53.060;9.342;2023-08-01T04:06:53;6.80;;;4.63;;
75459;SDS011;64039;53.060;9.342;2023-08-01T04:09:19;10.32;;;5.35;;
75459;SDS011;64039;53.060;9.342;2023-08-01T04:11:44;6.57;;;4.82;;
75459;SDS011;64039;53.060;9.342;2023-08-01T04:14:09;6.20;;;4.35;;
75459;SDS011;64039;53.060;9.342;2023-08-01T04:16:35;7.90;;;5.10;;
75459;SDS011;64039;53.060;9.342;2023-08-01T04:19:00;6.18;;;4.70;;
75459;SDS011;64039;53.060;9.342;2023-08-01T04:21:26;10.55;;;5.20;;
75459;SDS011;64039;53.060;9.342;2023-08-01T04:23:51;8.13;;;4.90;;
75459;SDS011;64039;53.060;9.342;2023-08-01T04:26:17;8.40;;;5.38;;
75459;SDS011;64039;53.060;9.342;2023-08-01T04:28:42;7.57;;;5.53;;
75459;SDS011;64039;53.060;9.342;2023-08-01T04:31:08;9.40;;;5.53;;
75459;SDS011;64039;53.060;9.342;2023-08-01T04:33:33;7.43;;;4.90;;
75459;SDS011;64039;53.060;9.342;2023-08-01T04:35:58;8.82;;;5.38;;
75459;SDS011;64039;53.060;9.342;2023-08-01T04:38:24;8.32;;;6.00;;
75459;SDS011;64039;53.060;9.342;2023-08-01T04:40:49;9.48;;;5.55;;
75459;SDS011;64039;53.060;9.342;2023-08-01T04:43:16;8.10;;;5.85;;
75459;SDS011;64039;53.060;9.342;2023-08-01T04:45:41;9.75;;;5.75;;
75459;SDS011;64039;53.060;9.342;2023-08-01T04:48:07;7.30;;;5.43;;
75459;SDS011;64039;53.060;9.342;2023-08-01T04:50:33;9.10;;;5.63;;
75459;SDS011;64039;53.060;9.342;2023-08-01T04:52:58;8.77;;;5.68;;
75459;SDS011;64039;53.060;9.342;2023-08-01T04:55:23;9.50;;;6.38;;
75459;SDS011;64039;53.060;9.342;2023-08-01T04:57:49;8.60;;;5.45;;
75459;SDS011;64039;53.060;9.342;2023-08-01T05:00:15;9.93;;;6.88;;
75459;SDS011;64039;53.060;9.342;2023-08-01T05:02:42;8.25;;;5.53;;
75459;SDS011;64039;53.060;9.342;2023-08-01T05:05:07;8.43;;;6.25;;
75459;SDS011;64039;53.060;9.342;2023-08-01T05:07:33;10.05;;;6.32;;
75459;SDS011;64039;53.060;9.342;2023-08-01T05:09:58;11.23;;;6.60;;
75459;SDS011;64039;53.060;9.342;2023-08-01T05:12:24;12.25;;;6.68;;
75459;SDS011;64039;53.060;9.342;2023-08-01T05:14:49;10.20;;;6.50;;
75459;SDS011;64039;53.060;9.342;2023-08-01T05:17:15;12.13;;;6.63;;
75459;SDS011;64039;53.060;9.342;2023-08-01T05:19:40;10.80;;;6.78;;
75459;SDS011;64039;53.060;9.342;2023-08-01T05:22:06;16.05;;;7.28;;
75459;SDS011;64039;53.060;9.342;2023-08-01T05:24:31;11.70;;;6.40;;
75459;SDS011;64039;53.060;9.342;2023-08-01T05:26:57;9.25;;;7.10;;
75459;SDS011;64039;53.060;9.342;2023-08-01T05:29:22;10.88;;;7.15;;
75459;SDS011;64039;53.060;9.342;2023-08-01T05:31:48;12.52;;;6.88;;
75459;SDS011;64039;53.060;9.342;2023-08-01T05:34:13;12.95;;;7.60;;
75459;SDS011;64039;53.060;9.342;2023-08-01T05:36:39;11.80;;;7.20;;
75459;SDS011;64039;53.060;9.342;2023-08-01T05:39:05;11.50;;;7.00;;
75459;SDS011;64039;53.060;9.342;2023-08-01T05:41:30;10.40;;;7.38;;
75459;SDS011;64039;53.060;9.342;2023-08-01T05:43:56;8.35;;;6.78;;
75459;SDS011;64039;53.060;9.342;2023-08-01T05:46:23;11.15;;;7.13;;
75459;SDS011;64039;53.060;9.342;2023-08-01T05:48:48;10.18;;;6.13;;
75459;SDS011;64039;53.060;9.342;2023-08-01T05:51:14;13.88;;;6.88;;
75459;SDS011;64039;53.060;9.342;2023-08-01T05:53:39;10.70;;;7.00;;
75459;SDS011;64039;53.060;9.342;2023-08-01T05:56:05;9.68;;;6.20;;
75459;SDS011;64039;53.060;9.342;2023-08-01T05:58:30;10.02;;;5.82;;
75459;SDS011;64039;53.060;9.342;2023-08-01T06:00:56;10.65;;;5.85;;
75459;SDS011;64039;53.060;9.342;2023-08-01T06:03:22;8.00;;;4.90;;
75459;SDS011;64039;53.060;9.342;2023-08-01T06:05:47;7.65;;;4.85;;
75459;SDS011;64039;53.060;9.342;2023-08-01T06:08:13;7.18;;;4.63;;
75459;SDS011;64039;53.060;9.342;2023-08-01T06:10:40;7.97;;;4.75;;
75459;SDS011;64039;53.060;9.342;2023-08-01T06:13:06;8.60;;;4.32;;
75459;SDS011;64039;53.060;9.342;2023-08-01T06:15:32;8.23;;;3.20;;
75459;SDS011;64039;53.060;9.342;2023-08-01T06:17:58;7.53;;;3.30;;
75459;SDS011;64039;53.060;9.342;2023-08-01T06:20:23;7.15;;;3.15;;
75459;SDS011;64039;53.060;9.342;2023-08-01T06:22:49;9.07;;;2.92;;
75459;SDS011;64039;53.060;9.342;2023-08-01T06:25:14;6.60;;;3.00;;
75459;SDS011;64039;53.060;9.342;2023-08-01T06:27:40;4.50;;;2.90;;
75459;SDS011;64039;53.060;9.342;2023-08-01T06:30:06;6.28;;;2.75;;
75459;SDS011;64039;53.060;9.342;2023-08-01T06:32:32;5.15;;;2.80;;
75459;SDS011;64039;53.060;9.342;2023-08-01T06:34:57;5.45;;;2.63;;
75459;SDS011;64039;53.060;9.342;2023-08-01T06:37:22;3.42;;;2.28;;
75459;SDS011;64039;53.060;9.342;2023-08-01T06:39:48;6.05;;;2.30;;
75459;SDS011;64039;53.060;9.342;2023-08-01T06:42:14;5.57;;;2.90;;
75459;SDS011;64039;53.060;9.342;2023-08-01T06:44:41;6.20;;;3.15;;
75459;SDS011;64039;53.060;9.342;2023-08-01T06:47:06;5.90;;;2.95;;
75459;SDS011;64039;53.060;9.342;2023-08-01T06:49:32;5.70;;;3.35;;
75459;SDS011;64039;53.060;9.342;2023-08-01T06:51:58;4.95;;;3.15;;
75459;SDS011;64039;53.060;9.342;2023-08-01T06:54:23;6.32;;;3.05;;
75459;SDS011;64039;53.060;9.342;2023-08-01T06:56:49;6.07;;;3.42;;
75459;SDS011;64039;53.060;9.342;2023-08-01T06:59:14;8.55;;;4.15;;
75459;SDS011;64039;53.060;9.342;2023-08-01T07:01:40;8.60;;;4.85;;
75459;SDS011;64039;53.060;9.342;2023-08-01T07:04:08;8.88;;;4.90;;
75459;SDS011;64039;53.060;9.342;2023-08-01T07:06:34;12.82;;;5.57;;
75459;SDS011;64039;53.060;9.342;2023-08-01T07:09:00;10.77;;;5.25;;
75459;SDS011;64039;53.060;9.342;2023-08-01T07:11:26;13.88;;;5.93;;
75459;SDS011;64039;53.060;9.342;2023-08-01T07:13:51;10.57;;;5.55;;
75459;SDS011;64039;53.060;9.342;2023-08-01T07:16:17;9.68;;;5.90;;
75459;SDS011;64039;53.060;9.342;2023-08-01T07:18:42;10.43;;;5.82;;
75459;SDS011;64039;53.060;9.342;2023-08-01T07:21:08;10.82;;;6.32;;
75459;SDS011;64039;53.060;9.342;2023-08-01T07:23:33;10.40;;;5.97;;
75459;SDS011;64039;53.060;9.342;2023-08-01T07:26:00;10.50;;;6.40;;
75459;SDS011;64039;53.060;9.342;2023-08-01T07:28:26;11.55;;;6.15;;
75459;SDS011;64039;53.060;9.342;2023-08-01T07:30:58;12.00;;;6.18;;
75459;SDS011;64039;53.060;9.342;2023-08-01T07:33:24;12.35;;;6.20;;
75459;SDS011;64039;53.060;9.342;2023-08-01T07:35:50;10.23;;;5.50;;
75459;SDS011;64039;53.060;9.342;2023-08-01T07:38:15;11.95;;;5.20;;
75459;SDS011;64039;53.060;9.342;2023-08-01T07:40:41;11.65;;;4.88;;
75459;SDS011;64039;53.060;9.342;2023-08-01T07:43:06;10.15;;;5.13;;
75459;SDS011;64039;53.060;9.342;2023-08-01T07:45:33;10.18;;;4.30;;
75459;SDS011;64039;53.060;9.342;2023-08-01T07:47:59;6.68;;;4.32;;
75459;SDS011;64039;53.060;9.342;2023-08-01T07:50:25;6.95;;;3.80;;
75459;SDS011;64039;53.060;9.342;2023-08-01T07:52:51;6.78;;;4.10;;
75459;SDS011;64039;53.060;9.342;2023-08-01T07:55:17;7.57;;;3.40;;
75459;SDS011;64039;53.060;9.342;2023-08-01T07:57:43;7.60;;;3.45;;
75459;SDS011;64039;53.060;9.342;2023-08-01T08:00:09;8.13;;;3.67;;
75459;SDS011;64039;53.060;9.342;2023-08-01T08:02:36;6.13;;;3.53;;
75459;SDS011;64039;53.060;9.342;2023-08-01T08:05:01;8.40;;;2.78;;
75459;SDS011;64039;53.060;9.342;2023-08-01T08:07:27;7.28;;;2.55;;
75459;SDS011;64039;53.060;9.342;2023-08-01T08:09:52;4.53;;;2.30;;
75459;SDS011;64039;53.060;9.342;2023-08-01T08:12:20;5.80;;;1.80;;
75459;SDS011;64039;53.060;9.342;2023-08-01T08:14:46;5.85;;;1.80;;
75459;SDS011;64039;53.060;9.342;2023-08-01T08:17:12;5.13;;;1.60;;
75459;SDS011;64039;53.060;9.342;2023-08-01T08:19:38;3.17;;;1.20;;
75459;SDS011;64039;53.060;9.342;2023-08-01T08:22:03;4.80;;;1.58;;
75459;SDS011;64039;53.060;9.342;2023-08-01T08:24:29;4.57;;;1.40;;
75459;SDS011;64039;53.060;9.342;2023-08-01T08:26:54;3.00;;;1.25;;
75459;SDS011;64039;53.060;9.342;2023-08-01T08:29:20;1.75;;;1.10;;
75459;SDS011;64039;53.060;9.342;2023-08-01T08:31:46;6.80;;;4.68;;
75459;SDS011;64039;53.060;9.342;2023-08-01T08:34:12;2.38;;;1.27;;
75459;SDS011;64039;53.060;9.342;2023-08-01T08:36:37;2.15;;;0.90;;
75459;SDS011;64039;53.060;9.342;2023-08-01T08:39:02;3.15;;;1.20;;
75459;SDS011;64039;53.060;9.342;2023-08-01T08:41:31;2.22;;;1.10;;
75459;SDS011;64039;53.060;9.342;2023-08-01T08:44:02;2.22;;;1.10;;
75459;SDS011;64039;53.060;9.342;2023-08-01T08:46:34;2.20;;;1.15;;
75459;SDS011;64039;53.060;9.342;2023-08-01T08:49:05;6.05;;;1.33;;
75459;SDS011;64039;53.060;9.342;2023-08-01T08:51:32;4.70;;;1.65;;
75459;SDS011;64039;53.060;9.342;2023-08-01T08:53:59;5.63;;;1.77;;
75459;SDS011;64039;53.060;9.342;2023-08-01T08:56:26;4.32;;;1.65;;
75459;SDS011;64039;53.060;9.342;2023-08-01T08:58:53;3.45;;;1.70;;
75459;SDS011;64039;53.060;9.342;2023-08-01T09:01:19;6.05;;;1.83;;
75459;SDS011;64039;53.060;9.342;2023-08-01T09:03:44;4.45;;;1.85;;
75459;SDS011;64039;53.060;9.342;2023-08-01T09:06:17;3.65;;;1.70;;
75459;SDS011;64039;53.060;9.342;2023-08-01T09:08:55;3.17;;;1.50;;
75459;SDS011;64039;53.060;9.342;2023-08-01T09:11:26;3.78;;;1.50;;
75459;SDS011;64039;53.060;9.342;2023-08-01T09:13:53;6.75;;;1.40;;
75459;SDS011;64039;53.060;9.342;2023-08-01T09:16:18;3.30;;;1.40;;
75459;SDS011;64039;53.060;9.342;2023-08-01T09:18:51;3.47;;;1.23;;
75459;SDS011;64039;53.060;9.342;2023-08-01T09:21:17;2.30;;;1.00;;
75459;SDS011;64039;53.060;9.342;2023-08-01T09:23:43;4.63;;;1.40;;
75459;SDS011;64039;53.060;9.342;2023-08-01T09:26:12;5.20;;;1.50;;
75459;SDS011;64039;53.060;9.342;2023-08-01T09:28:41;3.00;;;1.30;;
75459;SDS011;64039;53.060;9.342;2023-08-01T09:31:07;3.60;;;1.25;;
75459;SDS011;64039;53.060;9.342;2023-08-01T09:33:41;3.55;;;1.40;;
75459;SDS011;64039;53.060;9.342;2023-08-01T09:36:07;4.13;;;1.15;;
75459;SDS011;64039;53.060;9.342;2023-08-01T09:38:37;3.70;;;1.52;;
75459;SDS011;64039;53.060;9.342;2023-08-01T09:41:03;2.28;;;1.30;;
75459;SDS011;64039;53.060;9.342;2023-08-01T09:43:36;3.85;;;1.30;;
75459;SDS011;64039;53.060;9.342;2023-08-01T09:46:02;2.75;;;1.23;;
75459;SDS011;64039;53.060;9.342;2023-08-01T09:48:29;1.75;;;1.00;;
75459;SDS011;64039;53.060;9.342;2023-08-01T09:51:08;3.30;;;1.10;;
75459;SDS011;64039;53.060;9.342;2023-08-01T09:53:51;2.53;;;1.00;;
75459;SDS011;64039;53.060;9.342;2023-08-01T09:56:25;3.28;;;0.95;;
75459;SDS011;64039;53.060;9.342;2023-08-01T09:58:52;1.83;;;1.00;;
75459;SDS011;64039;53.060;9.342;2023-08-01T10:01:20;2.63;;;0.90;;
75459;SDS011;64039;53.060;9.342;2023-08-01T10:03:52;4.45;;;1.05;;
75459;SDS011;64039;53.060;9.342;2023-08-01T10:06:22;2.03;;;0.90;;
75459;SDS011;64039;53.060;9.342;2023-08-01T10:08:49;2.15;;;1.20;;
75459;SDS011;64039;53.060;9.342;2023-08-01T10:11:17;3.92;;;1.52;;
75459;SDS011;64039;53.060;9.342;2023-08-01T10:13:44;3.63;;;1.27;;
75459;SDS011;64039;53.060;9.342;2023-08-01T10:16:11;2.60;;;1.05;;
75459;SDS011;64039;53.060;9.342;2023-08-01T10:18:37;1.98;;;1.00;;
75459;SDS011;64039;53.060;9.342;2023-08-01T10:21:07;3.65;;;0.90;;
75459;SDS011;64039;53.060;9.342;2023-08-01T10:23:35;1.17;;;0.75;;
75459;SDS011;64039;53.060;9.342;2023-08-01T10:26:04;4.03;;;0.88;;
75459;SDS011;64039;53.060;9.342;2023-08-01T10:28:35;3.92;;;0.90;;
75459;SDS011;64039;53.060;9.342;2023-08-01T10:31:15;2.22;;;0.88;;
75459;SDS011;64039;53.060;9.342;2023-08-01T10:33:44;2.15;;;1.00;;
75459;SDS011;64039;53.060;9.342;2023-08-01T10:36:22;4.97;;;1.30;;
75459;SDS011;64039;53.060;9.342;2023-08-01T10:38:52;2.90;;;1.20;;
75459;SDS011;64039;53.060;9.342;2023-08-01T10:41:25;4.05;;;1.17;;
75459;SDS011;64039;53.060;9.342;2023-08-01T10:46:46;3.00;;;1.20;;
75459;SDS011;64039;53.060;9.342;2023-08-01T10:49:15;2.50;;;1.35;;
75459;SDS011;64039;53.060;9.342;2023-08-01T10:51:42;6.80;;;1.60;;
75459;SDS011;64039;53.060;9.342;2023-08-01T10:54:19;4.40;;;1.83;;
75459;SDS011;64039;53.060;9.342;2023-08-01T10:56:46;3.40;;;1.40;;
75459;SDS011;64039;53.060;9.342;2023-08-01T10:59:16;3.60;;;1.77;;
75459;SDS011;64039;53.060;9.342;2023-08-01T11:01:44;2.63;;;1.55;;
75459;SDS011;64039;53.060;9.342;2023-08-01T11:04:14;3.15;;;1.30;;
75459;SDS011;64039;53.060;9.342;2023-08-01T11:06:44;4.88;;;1.50;;
75459;SDS011;64039;53.060;9.342;2023-08-01T11:09:26;3.80;;;1.30;;
75459;SDS011;64039;53.060;9.342;2023-08-01T11:11:53;1.40;;;1.00;;
75459;SDS011;64039;53.060;9.342;2023-08-01T11:14:22;1.35;;;0.85;;
75459;SDS011;64039;53.060;9.342;2023-08-01T11:16:49;3.45;;;1.10;;
75459;SDS011;64039;53.060;9.342;2023-08-01T11:19:25;2.40;;;1.00;;
75459;SDS011;64039;53.060;9.342;2023-08-01T11:21:51;5.20;;;1.88;;
75459;SDS011;64039;53.060;9.342;2023-08-01T11:24:17;3.35;;;1.00;;
75459;SDS011;64039;53.060;9.342;2023-08-01T11:26:46;2.45;;;1.30;;
75459;SDS011;64039;53.060;9.342;2023-08-01T11:29:13;2.10;;;1.15;;
75459;SDS011;64039;53.060;9.342;2023-08-01T11:31:39;1.90;;;0.88;;
75459;SDS011;64039;53.060;9.342;2023-08-01T11:34:08;1.88;;;0.80;;
75459;SDS011;64039;53.060;9.342;2023-08-01T11:36:35;2.97;;;0.80;;
75459;SDS011;64039;53.060;9.342;2023-08-01T11:39:01;1.15;;;0.68;;
75459;SDS011;64039;53.060;9.342;2023-08-01T11:41:28;2.80;;;0.70;;
75459;SDS011;64039;53.060;9.342;2023-08-01T11:43:54;2.33;;;0.80;;
75459;SDS011;64039;53.060;9.342;2023-08-01T11:46:20;3.35;;;0.63;;
75459;SDS011;64039;53.060;9.342;2023-08-01T11:48:55;1.83;;;0.50;;
75459;SDS011;64039;53.060;9.342;2023-08-01T11:51:20;1.23;;;0.50;;
75459;SDS011;64039;53.060;9.342;2023-08-01T11:53:46;1.50;;;0.50;;
75459;SDS011;64039;53.060;9.342;2023-08-01T11:56:20;1.17;;;0.52;;
75459;SDS011;64039;53.060;9.342;2023-08-01T11:58:46;1.52;;;0.50;;
75459;SDS011;64039;53.060;9.342;2023-08-01T12:01:12;2.10;;;0.57;;
75459;SDS011;64039;53.060;9.342;2023-08-01T12:03:42;1.15;;;0.60;;
75459;SDS011;64039;53.060;9.342;2023-08-01T12:06:19;1.75;;;0.70;;
75459;SDS011;64039;53.060;9.342;2023-08-01T12:08:48;1.52;;;0.50;;
75459;SDS011;64039;53.060;9.342;2023-08-01T12:11:22;1.05;;;0.40;;
75459;SDS011;64039;53.060;9.342;2023-08-01T12:16:40;1.80;;;0.77;;
75459;SDS011;64039;53.060;9.342;2023-08-01T12:19:09;4.82;;;0.82;;
75459;SDS011;64039;53.060;9.342;2023-08-01T12:21:35;1.48;;;0.80;;
75459;SDS011;64039;53.060;9.342;2023-08-01T12:24:01;3.45;;;1.73;;
75459;SDS011;64039;53.060;9.342;2023-08-01T12:26:27;4.18;;;2.15;;
75459;SDS011;64039;53.060;9.342;2023-08-01T12:28:52;2.17;;;0.90;;
75459;SDS011;64039;53.060;9.342;2023-08-01T12:31:18;2.95;;;1.52;;
75459;SDS011;64039;53.060;9.342;2023-08-01T12:33:45;2.25;;;0.75;;
75459;SDS011;64039;53.060;9.342;2023-08-01T12:36:11;3.97;;;0.70;;
75459;SDS011;64039;53.060;9.342;2023-08-01T12:38:37;2.80;;;0.70;;
75459;SDS011;64039;53.060;9.342;2023-08-01T12:41:02;1.95;;;0.98;;
75459;SDS011;64039;53.060;9.342;2023-08-01T12:43:28;4.43;;;1.92;;
75459;SDS011;64039;53.060;9.342;2023-08-01T12:45:53;2.30;;;0.73;;
75459;SDS011;64039;53.060;9.342;2023-08-01T12:48:21;1.83;;;0.60;;
75459;SDS011;64039;53.060;9.342;2023-08-01T12:50:46;1.58;;;0.60;;
75459;SDS011;64039;53.060;9.342;2023-08-01T12:53:13;4.72;;;1.35;;
75459;SDS011;64039;53.060;9.342;2023-08-01T12:55:39;1.00;;;0.57;;
75459;SDS011;64039;53.060;9.342;2023-08-01T12:58:07;2.63;;;0.75;;
75459;SDS011;64039;53.060;9.342;2023-08-01T13:00:33;2.20;;;0.70;;
75459;SDS011;64039;53.060;9.342;2023-08-01T13:02:59;2.67;;;0.80;;
75459;SDS011;64039;53.060;9.342;2023-08-01T13:05:24;1.80;;;0.82;;
75459;SDS011;64039;53.060;9.342;2023-08-01T13:07:49;1.58;;;0.52;;
75459;SDS011;64039;53.060;9.342;2023-08-01T13:10:15;2.70;;;0.70;;
75459;SDS011;64039;53.060;9.342;2023-08-01T13:12:41;1.45;;;0.50;;
75459;SDS011;64039;53.060;9.342;2023-08-01T13:15:07;1.67;;;0.77;;
75459;SDS011;64039;53.060;9.342;2023-08-01T13:17:33;2.78;;;0.98;;
75459;SDS011;64039;53.060;9.342;2023-08-01T13:19:59;3.05;;;0.80;;
75459;SDS011;64039;53.060;9.342;2023-08-01T13:22:24;1.58;;;0.40;;
75459;SDS011;64039;53.060;9.342;2023-08-01T13:24:50;3.60;;;0.68;;
75459;SDS011;64039;53.060;9.342;2023-08-01T13:27:15;2.90;;;0.70;;
75459;SDS011;64039;53.060;9.342;2023-08-01T13:29:41;2.88;;;0.80;;
75459;SDS011;64039;53.060;9.342;2023-08-01T13:32:06;3.40;;;0.80;;
75459;SDS011;64039;53.060;9.342;2023-08-01T13:34:32;1.00;;;0.60;;
75459;SDS011;64039;53.060;9.342;2023-08-01T13:36:57;1.90;;;0.68;;
75459;SDS011;64039;53.060;9.342;2023-08-01T13:39:23;1.92;;;1.10;;
75459;SDS011;64039;53.060;9.342;2023-08-01T13:41:49;3.60;;;1.20;;
75459;SDS011;64039;53.060;9.342;2023-08-01T13:44:14;3.35;;;0.80;;
75459;SDS011;64039;53.060;9.342;2023-08-01T13:46:39;2.42;;;0.88;;
75459;SDS011;64039;53.060;9.342;2023-08-01T13:49:05;3.95;;;0.90;;
75459;SDS011;64039;53.060;9.342;2023-08-01T13:51:31;3.38;;;0.80;;
75459;SDS011;64039;53.060;9.342;2023-08-01T13:53:57;2.65;;;0.73;;
75459;SDS011;64039;53.060;9.342;2023-08-01T13:56:24;5.72;;;2.15;;
75459;SDS011;64039;53.060;9.342;2023-08-01T13:58:50;3.08;;;1.27;;
75459;SDS011;64039;53.060;9.342;2023-08-01T14:01:16;1.85;;;1.25;;
75459;SDS011;64039;53.060;9.342;2023-08-01T14:03:43;2.28;;;0.80;;
75459;SDS011;64039;53.060;9.342;2023-08-01T14:06:13;4.38;;;1.50;;
75459;SDS011;64039;53.060;9.342;2023-08-01T14:08:40;2.08;;;0.80;;
75459;SDS011;64039;53.060;9.342;2023-08-01T14:11:07;2.53;;;0.80;;
75459;SDS011;64039;53.060;9.342;2023-08-01T14:13:34;3.25;;;1.55;;
75459;SDS011;64039;53.060;9.342;2023-08-01T14:16:00;1.73;;;0.60;;
75459;SDS011;64039;53.060;9.342;2023-08-01T14:18:27;2.75;;;1.08;;
75459;SDS011;64039;53.060;9.342;2023-08-01T14:20:53;4.05;;;1.20;;
75459;SDS011;64039;53.060;9.342;2023-08-01T14:23:19;3.33;;;1.50;;
75459;SDS011;64039;53.060;9.342;2023-08-01T14:25:45;2.20;;;0.70;;
75459;SDS011;64039;53.060;9.342;2023-08-01T14:28:10;1.92;;;0.77;;
75459;SDS011;64039;53.060;9.342;2023-08-01T14:30:37;3.50;;;1.73;;
75459;SDS011;64039;53.060;9.342;2023-08-01T14:33:03;2.85;;;0.77;;
75459;SDS011;64039;53.060;9.342;2023-08-01T14:35:30;1.90;;;0.85;;
75459;SDS011;64039;53.060;9.342;2023-08-01T14:37:56;2.88;;;1.30;;
75459;SDS011;64039;53.060;9.342;2023-08-01T14:40:22;4.68;;;1.42;;
75459;SDS011;64039;53.060;9.342;2023-08-01T14:42:48;1.48;;;0.60;;
75459;SDS011;64039;53.060;9.342;2023-08-01T14:45:14;4.18;;;1.30;;
75459;SDS011;64039;53.060;9.342;2023-08-01T14:47:40;2.95;;;1.00;;